createdAt,value
2023-05-20T00:02:27.136Z,38.90
2023-05-20T00:04:55.960Z,38.90
2023-05-20T00:07:24.340Z,38.90
2023-05-20T00:09:52.229Z,39.00
2023-05-20T00:12:20.323Z,39.00
2023-05-20T00:14:48.302Z,39.00
2023-05-20T00:17:16.317Z,39.10
2023-05-20T00:19:45.773Z,39.00
2023-05-20T00:22:13.520Z,39.00
2023-05-20T00:24:41.248Z,39.00
2023-05-20T00:27:09.002Z,39.10
2023-05-20T00:29:36.825Z,39.10
2023-05-20T00:32:05.390Z,39.20
2023-05-20T00:34:33.464Z,39.20
2023-05-20T00:37:02.973Z,39.20
2023-05-20T00:39:31.213Z,39.20
2023-05-20T00:42:00.962Z,39.20
2023-05-20T00:44:28.784Z,39.20
2023-05-20T00:46:56.774Z,39.30
2023-05-20T00:49:24.647Z,39.30
2023-05-20T00:51:52.648Z,39.20
2023-05-20T00:54:22.633Z,39.30
2023-05-20T00:56:50.674Z,39.30
2023-05-20T00:59:19.126Z,39.40
2023-05-20T01:01:47.160Z,39.40
2023-05-20T01:04:15.321Z,39.40
2023-05-20T01:06:43.392Z,39.40
2023-05-20T01:09:11.497Z,39.50
2023-05-20T01:11:44.272Z,39.50
2023-05-20T01:14:12.252Z,39.50
2023-05-20T01:16:40.190Z,39.50
2023-05-20T01:19:09.703Z,39.40
2023-05-20T01:21:37.697Z,39.50
2023-05-20T01:24:07.623Z,39.50
2023-05-20T01:26:38.454Z,39.50
2023-05-20T01:29:06.450Z,39.50
2023-05-20T01:31:36.791Z,39.60
2023-05-20T01:34:04.581Z,39.70
2023-05-20T01:36:32.522Z,39.60
2023-05-20T01:39:00.916Z,39.70
2023-05-20T01:41:30.670Z,39.70
2023-05-20T01:43:58.579Z,39.60
2023-05-20T01:46:26.553Z,39.70
2023-05-20T01:48:54.524Z,39.70
2023-05-20T01:51:22.393Z,39.60
2023-05-20T01:53:51.041Z,39.70
2023-05-20T01:56:19.049Z,39.70
2023-05-20T01:58:48.905Z,39.70
2023-05-20T02:01:16.935Z,39.70
2023-05-20T02:03:45.269Z,39.80
2023-05-20T02:06:13.372Z,39.80
2023-05-20T02:08:41.619Z,39.80
2023-05-20T02:11:09.676Z,39.80
2023-05-20T02:13:38.016Z,39.80
2023-05-20T02:16:07.881Z,39.80
2023-05-20T02:18:36.837Z,39.90
2023-05-20T02:21:05.089Z,40.00
2023-05-20T02:23:33.536Z,39.90
2023-05-20T02:26:01.578Z,39.90
2023-05-20T02:28:29.551Z,39.90
2023-05-20T02:30:58.116Z,39.90
2023-05-20T02:33:29.053Z,40.00
2023-05-20T02:35:57.427Z,40.00
2023-05-20T02:38:25.608Z,40.00
2023-05-20T02:40:53.378Z,40.10
2023-05-20T02:43:21.686Z,40.10
2023-05-20T02:45:49.767Z,40.20
2023-05-20T02:48:18.338Z,40.00
2023-05-20T02:50:48.325Z,40.10
2023-05-20T02:53:16.703Z,40.10
2023-05-20T02:55:45.194Z,40.20
2023-05-20T02:58:13.434Z,40.10
2023-05-20T03:00:41.679Z,40.10
2023-05-20T03:03:10.232Z,40.20
2023-05-20T03:05:38.714Z,40.20
2023-05-20T03:08:10.378Z,40.20
2023-05-20T03:10:38.830Z,40.20
2023-05-20T03:13:08.780Z,40.10
2023-05-20T03:15:37.070Z,40.20
2023-05-20T03:18:05.682Z,40.40
2023-05-20T03:20:33.828Z,40.30
2023-05-20T03:23:02.592Z,40.20
2023-05-20T03:25:32.738Z,40.40
2023-05-20T03:28:00.923Z,40.30
2023-05-20T03:30:29.302Z,40.30
2023-05-20T03:32:57.789Z,40.30
2023-05-20T03:35:25.986Z,40.30
2023-05-20T03:37:54.435Z,40.40
2023-05-20T03:40:22.360Z,40.40
2023-05-20T03:42:52.429Z,40.40
2023-05-20T03:45:20.209Z,40.40
2023-05-20T03:47:48.573Z,40.40
2023-05-20T03:50:17.122Z,40.30
2023-05-20T03:52:45.072Z,40.50
2023-05-20T03:55:12.986Z,40.50
2023-05-20T03:57:40.789Z,40.50
2023-05-20T04:00:11.819Z,40.50
2023-05-20T04:02:40.383Z,40.40
2023-05-20T04:05:10.572Z,40.60
2023-05-20T04:07:38.542Z,40.40
2023-05-20T04:10:07.388Z,40.60
2023-05-20T04:12:36.822Z,40.50
2023-05-20T04:15:05.352Z,40.50
2023-05-20T04:17:37.643Z,40.50
2023-05-20T04:20:07.393Z,40.50
2023-05-20T04:22:35.347Z,40.60
2023-05-20T04:25:05.713Z,40.60
2023-05-20T04:27:34.695Z,40.60
2023-05-20T04:30:04.479Z,40.50
2023-05-20T04:32:32.440Z,40.60
2023-05-20T04:35:03.414Z,40.60
2023-05-20T04:37:32.466Z,40.40
2023-05-20T04:40:03.298Z,40.40
2023-05-20T04:42:31.247Z,40.60
2023-05-20T04:45:01.834Z,40.50
2023-05-20T04:47:30.291Z,40.50
2023-05-20T04:49:58.593Z,40.50
2023-05-20T04:52:27.819Z,40.50
2023-05-20T04:54:58.953Z,40.60
2023-05-20T04:57:27.789Z,40.60
2023-05-20T04:59:58.658Z,40.50
2023-05-20T05:02:27.084Z,40.60
2023-05-20T05:04:55.136Z,40.50
2023-05-20T05:07:23.184Z,40.50
2023-05-20T05:09:52.792Z,40.40
2023-05-20T05:12:21.448Z,40.50
2023-05-20T05:14:49.621Z,40.60
2023-05-20T05:17:17.709Z,40.60
2023-05-20T05:19:45.950Z,40.40
2023-05-20T05:22:13.753Z,40.80
2023-05-20T05:24:41.736Z,40.60
2023-05-20T05:27:11.340Z,40.50
2023-05-20T05:29:39.492Z,41.20
2023-05-20T05:32:08.084Z,40.60
2023-05-20T05:34:36.134Z,40.50
2023-05-20T05:37:04.554Z,40.40
2023-05-20T05:39:32.653Z,40.70
2023-05-20T05:42:01.224Z,40.50
2023-05-20T05:44:30.676Z,40.50
2023-05-20T05:46:59.124Z,40.60
2023-05-20T05:49:27.149Z,40.70
2023-05-20T05:51:55.345Z,40.70
2023-05-20T05:54:23.332Z,40.60
2023-05-20T05:56:52.454Z,40.70
2023-05-20T05:59:20.980Z,40.70
2023-05-20T06:01:50.420Z,40.70
2023-05-20T06:04:18.502Z,40.60
2023-05-20T06:06:46.496Z,40.70
2023-05-20T06:09:14.449Z,40.50
2023-05-20T06:11:44.453Z,40.60
2023-05-20T06:14:12.374Z,40.70
2023-05-20T06:16:40.658Z,40.60
2023-05-20T06:19:10.533Z,40.60
2023-05-20T06:21:38.665Z,40.60
2023-05-20T06:24:07.457Z,40.60
2023-05-20T06:26:35.406Z,40.50
2023-05-20T06:29:04.123Z,40.50
2023-05-20T06:31:31.940Z,40.50
2023-05-20T06:34:00.218Z,40.40
2023-05-20T06:36:30.277Z,40.40
2023-05-20T06:39:00.798Z,40.40
2023-05-20T06:41:28.763Z,40.40
2023-05-20T06:43:57.037Z,40.40
2023-05-20T06:46:25.007Z,40.50
2023-05-20T06:48:53.169Z,40.40
2023-05-20T06:51:21.328Z,40.40
2023-05-20T06:53:50.604Z,40.40
2023-05-20T06:56:18.654Z,40.40
2023-05-20T06:58:46.569Z,40.50
2023-05-20T07:01:16.024Z,40.30
2023-05-20T07:03:45.711Z,40.40
2023-05-20T07:06:13.677Z,40.50
2023-05-20T07:08:41.650Z,40.50
2023-05-20T07:11:11.035Z,40.50
2023-05-20T07:13:39.530Z,40.60
2023-05-20T07:16:08.177Z,40.60
2023-05-20T07:18:36.391Z,40.40
2023-05-20T07:21:04.908Z,40.40
2023-05-20T07:23:33.201Z,40.40
2023-05-20T07:28:51.798Z,40.30
2023-05-20T07:31:19.918Z,40.30
2023-05-20T07:33:47.941Z,40.30
2023-05-20T07:36:16.430Z,40.30
2023-05-20T07:38:53.076Z,40.30
2023-05-20T07:41:24.639Z,40.30
2023-05-20T07:43:54.086Z,40.20
2023-05-20T07:46:22.156Z,40.30
2023-05-20T07:48:50.684Z,40.30
2023-05-20T07:51:18.974Z,40.20
2023-05-20T07:53:47.434Z,40.10
2023-05-20T07:56:15.451Z,40.00
2023-05-20T07:58:43.416Z,40.00
2023-05-20T08:01:12.942Z,39.90
2023-05-20T08:03:40.979Z,39.80
2023-05-20T08:06:09.016Z,39.70
2023-05-20T08:08:36.878Z,39.60
2023-05-20T08:11:04.924Z,39.50
2023-05-20T08:13:33.237Z,39.40
2023-05-20T08:16:01.198Z,40.40
2023-05-20T08:18:30.549Z,40.50
2023-05-20T08:20:58.909Z,40.40
2023-05-20T08:23:27.469Z,40.40
2023-05-20T08:25:55.790Z,40.40
2023-05-20T08:28:23.764Z,40.50
2023-05-20T08:30:52.069Z,40.30
2023-05-20T08:33:21.800Z,40.30
2023-05-20T08:35:51.200Z,40.20
2023-05-20T08:38:19.133Z,40.10
2023-05-20T08:40:47.202Z,40.10
2023-05-20T08:43:15.526Z,39.90
2023-05-20T08:45:43.550Z,39.80
2023-05-20T08:48:12.203Z,39.70
2023-05-20T08:50:41.124Z,39.70
2023-05-20T08:53:10.716Z,39.60
2023-05-20T08:55:42.249Z,39.50
2023-05-20T08:58:10.693Z,39.30
2023-05-20T09:00:38.757Z,39.20
2023-05-20T09:03:06.746Z,39.20
2023-05-20T09:05:35.387Z,39.10
2023-05-20T09:08:08.062Z,39.00
2023-05-20T09:10:38.479Z,39.00
2023-05-20T09:13:06.744Z,38.80
2023-05-20T09:15:35.391Z,38.80
2023-05-20T09:18:03.727Z,38.60
2023-05-20T09:20:32.302Z,39.10
2023-05-20T09:23:00.806Z,38.50
2023-05-20T09:25:28.923Z,38.30
2023-05-20T09:27:58.405Z,38.30
2023-05-20T09:30:26.907Z,38.00
2023-05-20T09:32:56.004Z,38.20
2023-05-20T09:35:24.941Z,38.10
2023-05-20T09:37:54.138Z,38.20
2023-05-20T09:40:25.584Z,38.20
2023-05-20T09:42:55.091Z,37.90
2023-05-20T09:45:24.618Z,37.50
2023-05-20T09:47:53.478Z,37.80
2023-05-20T09:50:22.381Z,37.60
2023-05-20T09:52:51.402Z,37.80
2023-05-20T09:55:19.648Z,37.60
2023-05-20T09:57:47.634Z,37.70
2023-05-20T10:00:17.450Z,37.30
2023-05-20T10:02:48.010Z,37.20
2023-05-20T10:05:18.689Z,37.10
2023-05-20T10:08:13.340Z,36.80
2023-05-20T10:10:46.072Z,36.70
2023-05-20T10:13:21.523Z,36.50
2023-05-20T10:15:54.606Z,35.90
2023-05-20T10:18:31.178Z,34.90
2023-05-20T10:20:59.044Z,34.30
2023-05-20T10:23:30.320Z,34.20
2023-05-20T10:25:59.301Z,34.00
2023-05-20T10:28:31.107Z,33.50
2023-05-20T10:30:59.188Z,33.20
2023-05-20T10:33:29.464Z,32.60
2023-05-20T10:35:59.588Z,32.30
2023-05-20T10:38:27.851Z,32.10
2023-05-20T10:40:57.483Z,32.10
2023-05-20T10:43:29.391Z,31.80
2023-05-20T10:45:58.262Z,31.80
2023-05-20T10:48:28.927Z,31.60
2023-05-20T10:50:58.513Z,31.40
2023-05-20T10:53:34.158Z,31.40
2023-05-20T10:56:03.031Z,31.40
2023-05-20T10:58:37.999Z,31.50
2023-05-20T11:01:06.243Z,31.10
2023-05-20T11:03:36.258Z,31.00
2023-05-20T11:06:11.993Z,30.70
2023-05-20T11:08:40.087Z,30.50
2023-05-20T11:11:08.387Z,30.60
2023-05-20T11:13:36.422Z,30.70
2023-05-20T11:16:05.156Z,31.20
2023-05-20T11:18:33.646Z,30.20
2023-05-20T11:21:03.539Z,30.00
2023-05-20T11:23:31.863Z,29.80
2023-05-20T11:26:00.381Z,29.80
2023-05-20T11:28:28.382Z,29.70
2023-05-20T11:30:56.851Z,29.50
2023-05-20T11:33:26.875Z,30.40
2023-05-20T11:35:55.002Z,29.80
2023-05-20T11:38:24.403Z,29.70
2023-05-20T11:40:54.400Z,29.00
2023-05-20T11:43:23.371Z,28.00
2023-05-20T11:45:54.329Z,27.70
2023-05-20T11:48:22.217Z,28.00
2023-05-20T11:50:50.064Z,27.20
2023-05-20T11:53:19.039Z,27.10
2023-05-20T11:55:49.793Z,27.00
2023-05-20T11:58:18.263Z,27.70
2023-05-20T12:00:52.854Z,26.90
2023-05-20T12:03:23.056Z,27.30
2023-05-20T12:05:51.334Z,26.50
2023-05-20T12:08:19.352Z,27.30
2023-05-20T12:10:48.832Z,27.60
2023-05-20T12:13:16.851Z,26.10
2023-05-20T12:15:44.829Z,26.40
2023-05-20T12:18:12.930Z,26.20
2023-05-20T12:20:41.440Z,26.30
2023-05-20T12:23:09.383Z,26.30
2023-05-20T12:25:37.205Z,26.60
2023-05-20T12:28:07.618Z,26.50
2023-05-20T12:30:35.854Z,26.00
2023-05-20T12:33:04.809Z,26.20
2023-05-20T12:35:38.551Z,26.30
2023-05-20T12:38:06.906Z,26.40
2023-05-20T12:40:35.222Z,26.60
2023-05-20T12:43:04.390Z,27.00
2023-05-20T12:45:33.901Z,27.20
2023-05-20T12:48:01.775Z,27.40
2023-05-20T12:50:30.155Z,27.50
2023-05-20T12:52:58.125Z,27.70
2023-05-20T12:55:26.133Z,28.00
2023-05-20T12:57:55.428Z,27.50
2023-05-20T13:00:23.873Z,27.40
2023-05-20T13:02:53.502Z,27.70
2023-05-20T13:05:21.680Z,27.60
2023-05-20T13:07:50.511Z,27.50
2023-05-20T13:10:18.443Z,27.40
2023-05-20T13:12:47.342Z,27.50
2023-05-20T13:15:16.213Z,27.70
2023-05-20T13:17:44.424Z,27.90
2023-05-20T13:20:14.599Z,28.00
2023-05-20T13:22:43.066Z,27.80
2023-05-20T13:25:11.315Z,27.60
2023-05-20T13:27:39.842Z,27.80
2023-05-20T13:30:09.372Z,27.80
2023-05-20T13:32:38.005Z,27.90
2023-05-20T13:35:07.075Z,28.10
2023-05-20T13:37:36.552Z,28.30
2023-05-20T13:40:04.763Z,28.40
2023-05-20T13:42:33.289Z,28.50
2023-05-20T13:45:01.589Z,28.60
2023-05-20T13:47:30.055Z,28.60
2023-05-20T13:49:58.324Z,28.70
2023-05-20T13:52:27.160Z,28.60
2023-05-20T13:54:56.449Z,28.70
2023-05-20T13:57:24.627Z,28.60
2023-05-20T13:59:52.774Z,28.90
2023-05-20T14:02:20.846Z,28.60
2023-05-20T14:04:49.013Z,28.70
2023-05-20T14:07:17.064Z,28.70
2023-05-20T14:09:45.430Z,28.80
2023-05-20T14:12:14.899Z,28.70
2023-05-20T14:14:42.999Z,28.50
2023-05-20T14:17:11.462Z,28.50
2023-05-20T14:19:39.442Z,28.40
2023-05-20T14:22:07.531Z,28.60
2023-05-20T14:24:35.549Z,28.40
2023-05-20T14:27:04.205Z,28.40
2023-05-20T14:29:34.170Z,28.30
2023-05-20T14:32:04.083Z,28.30
2023-05-20T14:34:32.196Z,28.60
2023-05-20T14:37:06.206Z,28.60
2023-05-20T14:39:34.257Z,28.60
2023-05-20T14:42:06.005Z,28.60
2023-05-20T14:44:40.006Z,28.70
2023-05-20T14:47:08.067Z,28.90
2023-05-20T14:49:37.293Z,28.70
2023-05-20T14:52:07.535Z,28.90
2023-05-20T14:54:35.663Z,28.70
2023-05-20T14:57:04.311Z,28.50
2023-05-20T14:59:32.118Z,28.70
2023-05-20T15:02:01.814Z,28.70
2023-05-20T15:04:29.876Z,28.80
2023-05-20T15:06:57.958Z,28.90
2023-05-20T15:09:26.096Z,28.80
2023-05-20T15:11:54.423Z,28.90
2023-05-20T15:14:22.428Z,29.00
2023-05-20T15:16:50.593Z,29.10
2023-05-20T15:19:19.941Z,29.10
2023-05-20T15:21:49.569Z,29.10
2023-05-20T15:24:17.906Z,29.30
2023-05-20T15:26:45.912Z,29.10
2023-05-20T15:29:14.415Z,29.30
2023-05-20T15:31:42.444Z,29.60
2023-05-20T15:34:10.528Z,29.70
2023-05-20T15:36:40.101Z,29.70
2023-05-20T15:39:08.596Z,30.60
2023-05-20T15:41:39.391Z,31.20
2023-05-20T15:44:08.966Z,31.60
2023-05-20T15:46:37.205Z,31.60
2023-05-20T15:49:05.633Z,31.50
2023-05-20T15:51:33.613Z,31.80
2023-05-20T15:54:03.567Z,31.90
2023-05-20T15:56:32.555Z,31.90
2023-05-20T15:59:00.319Z,32.10
2023-05-20T16:01:28.682Z,32.40
2023-05-20T16:03:58.151Z,32.40
2023-05-20T16:06:26.943Z,32.60
2023-05-20T16:08:54.864Z,32.30
2023-05-20T16:11:24.785Z,32.40
2023-05-20T16:13:52.665Z,32.50
2023-05-20T16:16:20.711Z,32.60
2023-05-20T16:18:48.856Z,32.50
2023-05-20T16:21:17.178Z,32.60
2023-05-20T16:23:45.152Z,32.80
2023-05-20T16:26:13.143Z,33.00
2023-05-20T16:28:43.181Z,33.40
2023-05-20T16:31:11.276Z,33.10
2023-05-20T16:33:39.319Z,33.40
2023-05-20T16:36:07.747Z,33.60
2023-05-20T16:38:35.752Z,33.40
2023-05-20T16:41:03.496Z,33.70
2023-05-20T16:43:31.664Z,33.60
2023-05-20T16:46:01.749Z,34.00
2023-05-20T16:48:29.765Z,33.90
2023-05-20T16:50:57.816Z,34.00
2023-05-20T16:53:25.877Z,34.00
2023-05-20T16:55:53.863Z,34.10
2023-05-20T16:58:21.685Z,34.30
2023-05-20T17:00:50.177Z,34.00
2023-05-20T17:03:20.785Z,33.90
2023-05-20T17:05:49.127Z,34.10
2023-05-20T17:08:18.180Z,34.10
2023-05-20T17:10:46.616Z,34.30
2023-05-20T17:13:14.678Z,34.10
2023-05-20T17:15:42.692Z,34.10
2023-05-20T17:18:11.723Z,34.20
2023-05-20T17:20:41.335Z,34.40
2023-05-20T17:23:09.324Z,34.40
2023-05-20T17:25:37.347Z,34.20
2023-05-20T17:28:05.617Z,34.80
2023-05-20T17:30:33.630Z,35.10
2023-05-20T17:33:01.920Z,35.20
2023-05-20T17:35:31.721Z,35.40
2023-05-20T17:38:01.170Z,35.40
2023-05-20T17:40:29.195Z,35.70
2023-05-20T17:42:57.140Z,35.80
2023-05-20T17:45:25.528Z,36.00
2023-05-20T17:47:53.633Z,35.90
2023-05-20T17:50:21.601Z,36.20
2023-05-20T17:52:49.643Z,36.20
2023-05-20T17:55:22.125Z,36.20
2023-05-20T17:57:50.156Z,36.30
2023-05-20T18:00:21.431Z,36.60
2023-05-20T18:02:49.574Z,36.60
2023-05-20T18:05:18.203Z,36.80
2023-05-20T18:07:46.381Z,36.90
2023-05-20T18:10:14.844Z,36.60
2023-05-20T18:12:45.337Z,37.10
2023-05-20T18:15:13.958Z,36.90
2023-05-20T18:17:41.868Z,36.90
2023-05-20T18:20:10.822Z,37.00
2023-05-20T18:22:40.225Z,37.20
2023-05-20T18:25:09.303Z,37.10
2023-05-20T18:27:37.767Z,37.70
2023-05-20T18:30:08.719Z,37.30
2023-05-20T18:32:36.813Z,37.20
2023-05-20T18:35:04.848Z,37.50
2023-05-20T18:37:33.047Z,37.60
2023-05-20T18:40:01.077Z,37.40
2023-05-20T18:42:29.027Z,37.80
2023-05-20T18:44:56.966Z,37.60
2023-05-20T18:47:26.395Z,37.70
2023-05-20T18:49:55.753Z,37.70
2023-05-20T18:52:23.959Z,37.70
2023-05-20T18:54:52.058Z,37.90
2023-05-20T18:57:20.118Z,37.90
2023-05-20T18:59:48.572Z,37.90
2023-05-20T19:02:17.390Z,38.20
2023-05-20T19:04:47.098Z,38.00
2023-05-20T19:07:15.067Z,38.50
2023-05-20T19:09:43.107Z,38.60
2023-05-20T19:12:11.031Z,38.60
2023-05-20T19:14:39.653Z,38.60
2023-05-20T19:17:08.063Z,38.50
2023-05-20T19:19:36.203Z,38.70
2023-05-20T19:22:06.614Z,39.30
2023-05-20T19:24:34.832Z,39.20
2023-05-20T19:27:03.139Z,39.10
2023-05-20T19:29:31.331Z,39.30
2023-05-20T19:31:59.591Z,39.90
2023-05-20T19:34:27.622Z,39.50
2023-05-20T19:36:56.989Z,39.70
2023-05-20T19:39:26.865Z,39.50
2023-05-20T19:41:54.974Z,40.10
2023-05-20T19:44:24.058Z,40.00
2023-05-20T19:46:52.831Z,39.90
2023-05-20T19:49:20.867Z,40.00
2023-05-20T19:51:48.981Z,40.60
2023-05-20T19:54:16.907Z,39.80
2023-05-20T19:56:46.414Z,39.90
2023-05-20T19:59:14.447Z,39.60
2023-05-20T20:01:43.223Z,39.50
2023-05-20T20:04:13.027Z,39.50
2023-05-20T20:06:40.856Z,39.60
2023-05-20T20:09:09.060Z,39.60
2023-05-20T20:11:37.553Z,39.70
2023-05-20T20:14:07.018Z,39.70
2023-05-20T20:16:36.278Z,39.70
2023-05-20T20:19:04.900Z,39.70
2023-05-20T20:21:32.865Z,39.70
2023-05-20T20:24:01.472Z,39.60
2023-05-20T20:26:31.028Z,39.70
2023-05-20T20:28:59.071Z,39.60
2023-05-20T20:31:28.575Z,39.70
2023-05-20T20:33:56.802Z,39.70
2023-05-20T20:36:32.716Z,39.70
2023-05-20T20:39:05.485Z,39.70
2023-05-20T20:41:35.497Z,39.80
2023-05-20T20:44:04.611Z,39.90
2023-05-20T20:46:34.098Z,39.80
2023-05-20T20:49:02.080Z,39.90
2023-05-20T20:51:30.055Z,39.90
2023-05-20T20:53:58.168Z,39.90
2023-05-20T20:56:26.861Z,40.00
2023-05-20T20:58:57.211Z,40.10
2023-05-20T21:01:25.770Z,40.10
2023-05-20T21:03:55.345Z,40.10
2023-05-20T21:06:23.432Z,40.00
2023-05-20T21:08:53.136Z,40.10
2023-05-20T21:11:22.430Z,40.10
2023-05-20T21:13:50.381Z,40.20
2023-05-20T21:16:18.402Z,40.00
2023-05-20T21:18:46.561Z,40.20
2023-05-20T21:21:20.433Z,40.20
2023-05-20T21:23:49.474Z,40.10
2023-05-20T21:26:17.787Z,40.30
2023-05-20T21:28:45.704Z,40.20
2023-05-20T21:31:13.713Z,40.30
2023-05-20T21:33:41.719Z,40.20
2023-05-20T21:36:09.663Z,40.30
2023-05-20T21:38:39.177Z,40.30
2023-05-20T21:41:07.023Z,40.30
2023-05-20T21:43:36.243Z,40.20
2023-05-20T21:46:04.216Z,40.30
2023-05-20T21:48:32.455Z,40.40
2023-05-20T21:51:00.540Z,40.40
2023-05-20T21:53:28.626Z,40.30
2023-05-20T21:55:57.879Z,40.30
2023-05-20T21:58:26.070Z,40.40
2023-05-20T22:00:53.927Z,40.30
2023-05-20T22:03:22.592Z,40.30
2023-05-20T22:05:50.605Z,40.30
2023-05-20T22:08:18.987Z,40.40
2023-05-20T22:10:47.105Z,40.40
2023-05-20T22:13:17.270Z,40.30
2023-05-20T22:15:45.167Z,40.60
2023-05-20T22:18:14.883Z,40.30
2023-05-20T22:20:43.378Z,40.40
2023-05-20T22:23:11.793Z,40.40
2023-05-20T22:25:39.738Z,40.50
2023-05-20T22:28:08.363Z,40.50
2023-05-20T22:30:38.315Z,40.50
2023-05-20T22:33:06.615Z,40.50
2023-05-20T22:35:34.832Z,40.50
2023-05-20T22:38:02.869Z,40.50
2023-05-20T22:40:31.476Z,40.50
2023-05-20T22:42:59.452Z,40.50
2023-05-20T22:45:27.909Z,40.60
2023-05-20T22:47:57.248Z,40.50
2023-05-20T22:50:26.474Z,40.60
2023-05-20T22:52:54.877Z,40.60
2023-05-20T22:55:24.207Z,41.20
2023-05-20T22:57:52.505Z,40.60
2023-05-20T23:00:20.918Z,40.60
2023-05-20T23:02:49.932Z,40.70
2023-05-20T23:05:20.249Z,40.60
2023-05-20T23:07:48.200Z,40.70
2023-05-20T23:10:16.682Z,40.80
2023-05-20T23:12:44.642Z,40.80
2023-05-20T23:15:12.824Z,40.80
2023-05-20T23:17:40.689Z,40.90
2023-05-20T23:20:11.367Z,40.80
2023-05-20T23:22:40.645Z,40.90
2023-05-20T23:25:09.249Z,41.00
2023-05-20T23:27:37.153Z,41.00
2023-05-20T23:30:05.989Z,41.00
2023-05-20T23:32:34.023Z,41.00
2023-05-20T23:35:04.817Z,41.10
2023-05-20T23:37:34.300Z,41.10
2023-05-20T23:40:05.205Z,41.10
2023-05-20T23:42:33.079Z,41.20
2023-05-20T23:45:01.072Z,41.30
2023-05-20T23:47:29.977Z,41.20
2023-05-20T23:49:59.087Z,41.20
2023-05-20T23:52:27.096Z,41.30
2023-05-20T23:54:56.716Z,41.30
2023-05-20T23:57:25.900Z,41.40
2023-05-20T23:59:54.433Z,41.30
